createdAt,value
2018-09-10T00:00:43.589Z,6.73
2018-09-10T00:03:13.121Z,6.93
2018-09-10T00:05:42.493Z,6.70
2018-09-10T00:08:12.513Z,7.23
2018-09-10T00:10:41.899Z,6.90
2018-09-10T00:13:11.375Z,7.30
2018-09-10T00:15:40.972Z,8.03
2018-09-10T00:18:10.473Z,8.57
2018-09-10T00:20:39.959Z,7.40
2018-09-10T00:23:09.449Z,7.80
2018-09-10T00:25:39.257Z,8.10
2018-09-10T00:28:09.548Z,9.20
2018-09-10T00:30:39.644Z,8.23
2018-09-10T00:33:09.855Z,8.60
2018-09-10T00:35:39.421Z,8.20
2018-09-10T00:38:08.745Z,8.57
2018-09-10T00:40:38.098Z,7.97
2018-09-10T00:43:07.481Z,9.27
2018-09-10T00:45:37.554Z,8.67
2018-09-10T00:48:07.047Z,8.37
2018-09-10T00:50:36.339Z,8.13
2018-09-10T00:53:05.646Z,9.03
2018-09-10T00:55:34.884Z,8.83
2018-09-10T00:58:04.548Z,9.03
2018-09-10T01:00:34.639Z,8.87
2018-09-10T01:03:04.162Z,9.70
2018-09-10T01:05:34.042Z,8.87
2018-09-10T01:08:03.342Z,8.67
2018-09-10T01:10:32.554Z,9.27
2018-09-10T01:13:01.804Z,9.70
2018-09-10T01:15:31.159Z,9.87
2018-09-10T01:18:00.646Z,9.90
2018-09-10T01:20:30.566Z,10.75
2018-09-10T01:23:00.051Z,9.90
2018-09-10T01:25:29.995Z,10.40
2018-09-10T01:27:59.366Z,9.97
2018-09-10T01:30:28.833Z,9.87
2018-09-10T01:32:58.073Z,9.87
2018-09-10T01:35:29.336Z,9.97
2018-09-10T01:37:58.738Z,10.33
2018-09-10T01:40:28.052Z,10.37
2018-09-10T01:42:57.818Z,11.20
2018-09-10T01:45:27.079Z,10.70
2018-09-10T01:47:56.256Z,10.87
2018-09-10T01:50:25.811Z,11.07
2018-09-10T01:52:55.759Z,10.70
2018-09-10T01:55:25.724Z,11.57
2018-09-10T01:57:55.061Z,10.67
2018-09-10T02:00:24.553Z,11.07
2018-09-10T02:02:53.969Z,11.87
2018-09-10T02:05:23.375Z,12.27
2018-09-10T02:07:53.427Z,12.23
2018-09-10T02:10:22.739Z,11.90
2018-09-10T02:12:52.346Z,11.60
2018-09-10T02:15:21.800Z,12.37
2018-09-10T02:17:51.180Z,12.83
2018-09-10T02:20:20.803Z,13.55
2018-09-10T02:22:50.001Z,12.17
2018-09-10T02:25:19.337Z,12.60
2018-09-10T02:27:49.235Z,12.47
2018-09-10T02:30:20.304Z,12.43
2018-09-10T02:32:49.635Z,13.10
2018-09-10T02:35:19.538Z,12.73
2018-09-10T02:37:48.806Z,12.40
2018-09-10T02:40:18.369Z,12.87
2018-09-10T02:42:48.515Z,12.93
2018-09-10T02:45:17.903Z,12.20
2018-09-10T02:47:47.411Z,12.30
2018-09-10T02:50:16.725Z,12.85
2018-09-10T02:52:46.855Z,13.57
2018-09-10T02:55:16.495Z,13.30
2018-09-10T02:57:45.974Z,12.75
2018-09-10T03:00:15.555Z,13.40
2018-09-10T03:02:45.009Z,12.25
2018-09-10T03:05:14.333Z,13.30
2018-09-10T03:07:44.395Z,13.70
2018-09-10T03:10:14.093Z,13.30
2018-09-10T03:12:44.009Z,12.80
2018-09-10T03:15:13.215Z,13.30
2018-09-10T03:17:42.513Z,14.10
2018-09-10T03:20:12.639Z,14.53
2018-09-10T03:22:42.215Z,12.57
2018-09-10T03:25:11.762Z,12.70
2018-09-10T03:27:41.070Z,13.90
2018-09-10T03:30:11.185Z,14.50
2018-09-10T03:32:40.974Z,13.37
2018-09-10T03:35:10.894Z,14.83
2018-09-10T03:37:40.284Z,14.23
2018-09-10T03:40:09.879Z,13.75
2018-09-10T03:42:39.198Z,13.67
2018-09-10T03:45:09.124Z,14.80
2018-09-10T03:47:38.432Z,15.37
2018-09-10T03:50:07.825Z,13.97
2018-09-10T03:52:38.419Z,15.13
2018-09-10T03:55:07.998Z,15.20
2018-09-10T03:57:37.446Z,14.83
2018-09-10T04:00:06.892Z,15.15
2018-09-10T04:02:36.301Z,15.40
2018-09-10T04:05:05.677Z,15.97
2018-09-10T04:07:35.113Z,14.87
2018-09-10T04:10:04.693Z,13.43
2018-09-10T04:12:34.451Z,14.20
2018-09-10T04:15:04.045Z,16.40
2018-09-10T04:17:33.266Z,15.60
2018-09-10T04:20:17.185Z,14.67
2018-09-10T04:22:46.869Z,16.27
2018-09-10T04:25:16.201Z,14.03
2018-09-10T04:27:45.531Z,14.33
2018-09-10T04:30:15.888Z,13.87
2018-09-10T04:32:45.177Z,15.23
2018-09-10T04:35:14.692Z,13.87
2018-09-10T04:37:45.194Z,15.57
2018-09-10T04:40:14.672Z,14.10
2018-09-10T04:42:44.004Z,14.80
2018-09-10T04:45:13.361Z,14.53
2018-09-10T04:47:42.884Z,15.30
2018-09-10T04:50:13.385Z,15.30
2018-09-10T04:52:42.827Z,14.90
2018-09-10T04:55:12.155Z,15.13
2018-09-10T04:57:41.626Z,16.05
2018-09-10T05:00:11.909Z,16.00
2018-09-10T05:02:41.753Z,15.70
2018-09-10T05:05:12.589Z,16.60
2018-09-10T05:07:42.097Z,16.80
2018-09-10T05:10:12.015Z,16.43
2018-09-10T05:12:41.972Z,16.23
2018-09-10T05:15:11.874Z,16.07
2018-09-10T05:17:43.724Z,15.03
2018-09-10T05:20:13.249Z,16.17
2018-09-10T05:22:42.601Z,16.47
2018-09-10T05:25:14.256Z,16.70
2018-09-10T05:27:44.352Z,18.90
2018-09-10T05:30:13.931Z,15.97
2018-09-10T05:32:45.170Z,15.87
2018-09-10T05:35:15.255Z,17.63
2018-09-10T05:37:44.911Z,16.90
2018-09-10T05:40:15.183Z,17.45
2018-09-10T05:42:44.890Z,17.03
2018-09-10T05:45:15.214Z,17.50
2018-09-10T05:47:44.663Z,17.10
2018-09-10T05:50:14.372Z,17.33
2018-09-10T05:52:43.934Z,16.70
2018-09-10T05:55:13.972Z,17.80
2018-09-10T05:57:44.034Z,16.50
2018-09-10T06:00:13.484Z,17.90
2018-09-10T06:02:42.820Z,17.10
2018-09-10T06:05:12.288Z,18.30
2018-09-10T06:07:43.153Z,18.13
2018-09-10T06:10:12.634Z,17.57
2018-09-10T06:12:42.022Z,18.37
2018-09-10T06:15:11.920Z,18.30
2018-09-10T06:17:42.171Z,17.65
2018-09-10T06:20:11.646Z,18.30
2018-09-10T06:22:41.195Z,17.90
2018-09-10T06:25:10.999Z,18.25
2018-09-10T06:27:40.913Z,18.25
2018-09-10T06:30:10.639Z,18.45
2018-09-10T06:32:40.067Z,18.80
2018-09-10T06:35:09.623Z,16.70
2018-09-10T06:37:40.279Z,17.07
2018-09-10T06:40:09.825Z,16.90
2018-09-10T06:42:39.379Z,17.50
2018-09-10T06:45:09.089Z,17.80
2018-09-10T06:47:38.719Z,16.70
2018-09-10T06:50:08.368Z,17.87
2018-09-10T06:52:37.979Z,16.60
2018-09-10T06:55:08.538Z,17.67
2018-09-10T06:57:38.111Z,17.57
2018-09-10T07:00:08.731Z,17.40
2018-09-10T07:02:39.203Z,17.70
2018-09-10T07:05:08.787Z,17.70
2018-09-10T07:07:38.374Z,16.50
2018-09-10T07:10:08.454Z,18.20
2018-09-10T07:12:38.580Z,17.17
2018-09-10T07:15:08.111Z,17.50
2018-09-10T07:17:37.701Z,17.20
2018-09-10T07:20:08.147Z,16.13
2018-09-10T07:22:37.547Z,15.85
2018-09-10T07:25:07.082Z,15.90
2018-09-10T07:27:36.488Z,15.70
2018-09-10T07:30:06.599Z,14.80
2018-09-10T07:32:36.012Z,13.45
2018-09-10T07:35:06.183Z,14.10
2018-09-10T07:37:36.147Z,14.27
2018-09-10T07:40:05.528Z,14.85
2018-09-10T07:42:34.852Z,13.55
2018-09-10T07:45:04.753Z,14.00
2018-09-10T07:47:34.840Z,12.05
2018-09-10T07:50:04.173Z,13.20
2018-09-10T07:52:33.640Z,12.45
2018-09-10T07:55:03.404Z,12.13
2018-09-10T07:57:33.810Z,12.03
2018-09-10T08:00:03.672Z,12.10
2018-09-10T08:02:33.043Z,11.17
2018-09-10T08:05:03.132Z,10.80
2018-09-10T08:07:32.522Z,10.87
2018-09-10T08:10:01.812Z,10.65
2018-09-10T08:12:31.185Z,10.73
2018-09-10T08:15:00.668Z,10.47
2018-09-10T08:17:30.100Z,9.70
2018-09-10T08:19:59.653Z,10.27
2018-09-10T08:22:29.130Z,9.53
2018-09-10T08:24:59.156Z,9.63
2018-09-10T08:27:28.567Z,9.37
2018-09-10T08:29:58.117Z,9.67
2018-09-10T08:32:28.237Z,9.57
2018-09-10T08:34:57.834Z,9.20
2018-09-10T08:37:27.285Z,9.00
2018-09-10T08:39:56.696Z,9.37
2018-09-10T08:42:26.242Z,9.80
2018-09-10T08:44:55.651Z,9.17
2018-09-10T08:47:24.980Z,8.00
2018-09-10T08:49:54.859Z,7.50
2018-09-10T08:52:24.515Z,7.50
2018-09-10T08:54:54.329Z,7.37
2018-09-10T08:57:24.414Z,6.50
2018-09-10T08:59:53.935Z,6.17
2018-09-10T09:02:24.007Z,6.37
2018-09-10T09:04:54.467Z,5.70
2018-09-10T09:07:23.959Z,5.23
2018-09-10T09:09:54.261Z,5.60
2018-09-10T09:12:23.648Z,5.70
2018-09-10T09:14:53.143Z,6.03
2018-09-10T09:17:22.564Z,6.07
2018-09-10T09:19:51.829Z,5.13
2018-09-10T09:22:21.281Z,5.23
2018-09-10T09:24:51.460Z,4.83
2018-09-10T09:27:21.206Z,4.63
2018-09-10T09:29:51.374Z,5.33
2018-09-10T09:32:21.577Z,4.40
2018-09-10T09:34:59.117Z,3.83
2018-09-10T09:37:34.638Z,3.53
2018-09-10T09:40:10.704Z,3.60
2018-09-10T09:42:46.508Z,3.00
2018-09-10T09:45:21.333Z,2.77
2018-09-10T09:47:51.444Z,2.90
2018-09-10T09:50:22.184Z,2.50
2018-09-10T09:52:51.687Z,2.57
2018-09-10T09:55:21.113Z,2.53
2018-09-10T09:57:51.348Z,2.60
2018-09-10T10:00:26.008Z,3.00
2018-09-10T10:02:56.900Z,2.57
2018-09-10T10:05:28.376Z,2.30
2018-09-10T10:07:58.479Z,2.07
2018-09-10T10:10:27.858Z,2.50
2018-09-10T10:12:57.529Z,2.37
2018-09-10T10:15:26.832Z,2.27
2018-09-10T10:17:56.340Z,2.30
2018-09-10T10:20:26.308Z,2.43
2018-09-10T10:22:55.779Z,2.57
2018-09-10T10:25:26.155Z,2.33
2018-09-10T10:27:55.587Z,2.50
2018-09-10T10:30:25.743Z,2.93
2018-09-10T10:32:55.264Z,2.20
2018-09-10T10:35:24.675Z,2.40
2018-09-10T10:37:54.300Z,2.77
2018-09-10T10:40:23.604Z,2.20
2018-09-10T10:42:53.006Z,2.40
2018-09-10T10:45:23.278Z,1.50
2018-09-10T10:47:52.811Z,2.20
2018-09-10T10:50:22.369Z,2.00
2018-09-10T10:52:52.051Z,1.97
2018-09-10T10:55:21.693Z,2.07
2018-09-10T10:57:51.156Z,1.83
2018-09-10T11:00:20.609Z,2.07
2018-09-10T11:02:50.283Z,1.60
2018-09-10T11:05:19.641Z,2.23
2018-09-10T11:07:48.983Z,1.70
2018-09-10T11:10:19.090Z,1.90
2018-09-10T11:12:48.835Z,1.93
2018-09-10T11:15:18.540Z,2.00
2018-09-10T11:17:47.971Z,1.50
2018-09-10T11:20:17.327Z,1.80
2018-09-10T11:22:46.757Z,1.40
2018-09-10T11:25:16.353Z,1.60
2018-09-10T11:27:46.164Z,2.10
2018-09-10T11:30:15.575Z,1.75
2018-09-10T11:32:45.641Z,2.10
2018-09-10T11:35:15.803Z,1.83
2018-09-10T11:37:46.003Z,1.80
2018-09-10T11:40:15.996Z,2.10
2018-09-10T11:42:45.512Z,1.87
2018-09-10T11:45:15.841Z,1.80
2018-09-10T11:47:45.347Z,1.90
2018-09-10T11:50:14.938Z,2.13
2018-09-10T11:52:44.276Z,1.83
2018-09-10T11:55:14.426Z,1.97
2018-09-10T11:57:43.714Z,2.07
2018-09-10T12:00:13.134Z,1.87
2018-09-10T12:02:42.840Z,1.90
2018-09-10T12:05:12.202Z,2.07
2018-09-10T12:07:42.282Z,1.97
2018-09-10T12:10:12.412Z,2.30
2018-09-10T12:12:42.088Z,1.70
2018-09-10T12:15:11.722Z,2.40
2018-09-10T12:17:41.705Z,2.33
2018-09-10T12:20:11.400Z,2.30
2018-09-10T12:22:41.549Z,2.40
2018-09-10T12:25:11.701Z,2.43
2018-09-10T12:27:42.447Z,1.90
2018-09-10T12:30:12.137Z,2.33
2018-09-10T12:32:41.599Z,1.87
2018-09-10T12:35:10.896Z,1.90
2018-09-10T12:37:41.162Z,2.17
2018-09-10T12:40:10.618Z,2.20
2018-09-10T12:42:40.051Z,2.50
2018-09-10T12:45:09.368Z,2.63
2018-09-10T12:47:38.646Z,2.40
2018-09-10T12:50:08.719Z,2.90
2018-09-10T12:52:38.204Z,2.37
2018-09-10T12:55:08.441Z,2.17
2018-09-10T12:57:38.457Z,2.13
2018-09-10T13:00:08.304Z,2.40
2018-09-10T13:02:37.875Z,2.50
2018-09-10T13:05:07.922Z,2.70
2018-09-10T13:07:37.552Z,2.90
2018-09-10T13:10:07.422Z,2.50
2018-09-10T13:12:37.212Z,2.50
2018-09-10T13:15:06.909Z,2.60
2018-09-10T13:17:36.414Z,2.37
2018-09-10T13:20:05.934Z,2.33
2018-09-10T13:22:36.006Z,2.33
2018-09-10T13:25:05.756Z,2.53
2018-09-10T13:27:34.973Z,2.63
2018-09-10T13:30:04.365Z,2.83
2018-09-10T13:32:33.795Z,2.90
2018-09-10T13:35:04.427Z,2.80
2018-09-10T13:37:33.767Z,2.40
2018-09-10T13:40:03.059Z,2.97
2018-09-10T13:42:32.620Z,3.23
2018-09-10T13:45:02.414Z,2.77
2018-09-10T13:47:32.733Z,3.17
2018-09-10T13:50:02.237Z,2.87
2018-09-10T13:52:31.683Z,2.70
2018-09-10T13:55:01.300Z,2.70
2018-09-10T13:57:30.975Z,2.60
2018-09-10T14:00:00.506Z,2.80
2018-09-10T14:02:30.070Z,3.20
2018-09-10T14:05:00.144Z,3.10
2018-09-10T14:07:30.002Z,2.63
2018-09-10T14:09:59.655Z,2.60
2018-09-10T14:12:29.244Z,3.00
2018-09-10T14:14:58.629Z,3.03
2018-09-10T14:17:28.038Z,2.77
2018-09-10T14:19:57.319Z,2.73
2018-09-10T14:22:26.798Z,2.43
2018-09-10T14:24:57.221Z,2.07
2018-09-10T14:27:26.733Z,2.17
2018-09-10T14:29:56.051Z,2.07
2018-09-10T14:32:25.424Z,2.93
2018-09-10T14:34:55.022Z,2.47
2018-09-10T14:37:24.717Z,2.40
2018-09-10T14:39:54.644Z,2.50
2018-09-10T14:42:23.947Z,2.50
2018-09-10T14:44:53.261Z,2.40
2018-09-10T14:47:22.649Z,2.40
2018-09-10T14:49:52.191Z,2.17
2018-09-10T14:52:21.560Z,2.70
2018-09-10T14:54:51.200Z,2.43
2018-09-10T14:57:21.348Z,2.80
2018-09-10T14:59:50.897Z,2.30
2018-09-10T15:02:21.352Z,2.60
2018-09-10T15:04:50.667Z,2.57
2018-09-10T15:07:19.905Z,2.07
2018-09-10T15:09:50.188Z,1.90
2018-09-10T15:12:20.074Z,2.60
2018-09-10T15:14:50.087Z,2.47
2018-09-10T15:17:19.697Z,2.20
2018-09-10T15:19:49.103Z,2.53
2018-09-10T15:22:18.830Z,1.80
2018-09-10T15:24:48.331Z,2.13
2018-09-10T15:27:18.448Z,2.00
2018-09-10T15:29:47.952Z,2.00
2018-09-10T15:32:17.262Z,2.27
2018-09-10T15:34:46.686Z,1.93
2018-09-10T15:37:15.894Z,1.90
2018-09-10T15:39:45.667Z,2.30
2018-09-10T15:42:16.660Z,2.10
2018-09-10T15:44:46.018Z,1.77
2018-09-10T15:47:15.296Z,2.00
2018-09-10T15:49:44.766Z,2.00
2018-09-10T15:52:14.180Z,2.00
2018-09-10T15:54:43.839Z,1.93
2018-09-10T15:57:13.333Z,1.57
2018-09-10T15:59:42.763Z,1.77
2018-09-10T16:02:12.873Z,1.90
2018-09-10T16:04:42.571Z,2.10
2018-09-10T16:07:13.062Z,1.70
2018-09-10T16:09:42.880Z,2.00
2018-09-10T16:12:12.101Z,1.77
2018-09-10T16:14:42.144Z,1.60
2018-09-10T16:17:11.499Z,1.57
2018-09-10T16:19:40.805Z,1.83
2018-09-10T16:22:10.935Z,1.77
2018-09-10T16:24:40.406Z,2.10
2018-09-10T16:27:10.347Z,1.70
2018-09-10T16:29:39.709Z,1.97
2018-09-10T16:32:09.696Z,2.00
2018-09-10T16:34:39.260Z,1.95
2018-09-10T16:37:08.483Z,2.00
2018-09-10T16:39:37.751Z,2.20
2018-09-10T16:42:07.147Z,2.10
2018-09-10T16:44:36.460Z,1.93
2018-09-10T16:47:05.982Z,2.00
2018-09-10T16:49:35.888Z,1.93
2018-09-10T16:52:05.163Z,2.50
2018-09-10T16:54:34.550Z,2.03
2018-09-10T16:57:03.938Z,2.37
2018-09-10T16:59:34.057Z,1.83
2018-09-10T17:02:03.376Z,2.20
2018-09-10T17:04:32.687Z,1.97
2018-09-10T17:07:01.994Z,2.00
2018-09-10T17:09:31.639Z,1.80
2018-09-10T17:12:00.962Z,2.07
2018-09-10T17:14:30.264Z,1.90
2018-09-10T17:16:59.490Z,1.90
2018-09-10T17:19:29.023Z,2.00
2018-09-10T17:21:58.366Z,2.10
2018-09-10T17:24:28.148Z,2.50
2018-09-10T17:26:57.375Z,2.93
2018-09-10T17:29:27.172Z,2.33
2018-09-10T17:31:58.345Z,2.63
2018-09-10T17:34:27.738Z,2.20
2018-09-10T17:36:56.992Z,2.97
2018-09-10T17:39:26.541Z,2.20
2018-09-10T17:41:56.631Z,2.30
2018-09-10T17:44:26.019Z,2.27
2018-09-10T17:46:55.636Z,2.67
2018-09-10T17:49:25.965Z,2.47
2018-09-10T17:51:56.133Z,2.17
2018-09-10T17:54:25.835Z,2.30
2018-09-10T17:56:55.637Z,2.05
2018-09-10T17:59:25.003Z,2.70
2018-09-10T18:01:54.326Z,2.33
2018-09-10T18:04:23.630Z,2.70
2018-09-10T18:06:53.011Z,2.00
2018-09-10T18:09:22.243Z,2.50
2018-09-10T18:11:51.648Z,2.43
2018-09-10T18:14:20.933Z,2.20
2018-09-10T18:16:50.373Z,2.17
2018-09-10T18:19:19.799Z,2.17
2018-09-10T18:21:49.191Z,2.30
2018-09-10T18:24:18.686Z,2.17
2018-09-10T18:26:48.873Z,2.30
2018-09-10T18:29:19.147Z,2.50
2018-09-10T18:31:48.497Z,2.70
2018-09-10T18:34:17.844Z,1.90
2018-09-10T18:36:47.413Z,2.20
2018-09-10T18:39:16.761Z,2.53
2018-09-10T18:41:47.124Z,2.10
2018-09-10T18:44:16.588Z,2.30
2018-09-10T18:46:45.972Z,2.27
2018-09-10T18:49:15.231Z,2.33
2018-09-10T18:51:44.718Z,2.30
2018-09-10T18:54:14.078Z,2.23
2018-09-10T18:56:43.448Z,2.20
2018-09-10T18:59:25.663Z,2.20
2018-09-10T19:01:55.126Z,2.30
2018-09-10T19:04:30.543Z,2.20
2018-09-10T19:06:59.942Z,3.00
2018-09-10T19:09:29.466Z,2.83
2018-09-10T19:11:59.055Z,2.63
2018-09-10T19:14:28.363Z,2.67
2018-09-10T19:16:57.764Z,3.40
2018-09-10T19:19:28.279Z,3.03
2018-09-10T19:21:57.794Z,3.10
2018-09-10T19:24:27.200Z,2.47
2018-09-10T19:26:56.630Z,2.93
2018-09-10T19:29:25.846Z,2.30
2018-09-10T19:31:56.342Z,2.20
2018-09-10T19:34:25.783Z,2.80
2018-09-10T19:36:55.296Z,2.40
2018-09-10T19:39:24.557Z,2.50
2018-09-10T19:41:53.921Z,2.87
2018-09-10T19:44:23.943Z,2.70
2018-09-10T19:46:53.280Z,2.73
2018-09-10T19:49:22.651Z,2.85
2018-09-10T19:51:55.117Z,3.07
2018-09-10T19:54:24.667Z,3.23
2018-09-10T19:56:54.689Z,3.13
2018-09-10T19:59:24.858Z,3.40
2018-09-10T20:01:54.402Z,2.85
2018-09-10T20:04:24.037Z,3.60
2018-09-10T20:06:54.063Z,3.60
2018-09-10T20:09:24.600Z,4.03
2018-09-10T20:11:53.875Z,3.97
2018-09-10T20:14:23.832Z,3.50
2018-09-10T20:16:53.508Z,4.20
2018-09-10T20:19:22.869Z,4.07
2018-09-10T20:21:52.568Z,3.57
2018-09-10T20:24:22.093Z,3.50
2018-09-10T20:26:52.293Z,3.53
2018-09-10T20:29:22.418Z,3.70
2018-09-10T20:31:52.206Z,3.83
2018-09-10T20:34:21.888Z,3.60
2018-09-10T20:36:51.550Z,3.80
2018-09-10T20:39:21.092Z,4.10
2018-09-10T20:41:50.435Z,3.97
2018-09-10T20:44:19.790Z,3.77
2018-09-10T20:46:49.454Z,4.07
2018-09-10T20:49:19.375Z,3.57
2018-09-10T20:51:48.675Z,3.50
2018-09-10T20:54:18.009Z,3.43
2018-09-10T20:56:47.326Z,3.63
2018-09-10T20:59:16.975Z,3.67
2018-09-10T21:01:46.356Z,3.60
2018-09-10T21:04:16.500Z,4.30
2018-09-10T21:06:46.296Z,4.03
2018-09-10T21:09:15.636Z,4.50
2018-09-10T21:11:45.622Z,4.00
2018-09-10T21:14:15.094Z,3.70
2018-09-10T21:16:45.786Z,3.90
2018-09-10T21:19:15.217Z,4.60
2018-09-10T21:21:44.458Z,3.35
2018-09-10T21:24:13.824Z,3.90
2018-09-10T21:26:43.724Z,4.00
2018-09-10T21:29:13.226Z,3.80
2018-09-10T21:31:42.878Z,3.70
2018-09-10T21:34:12.077Z,3.30
2018-09-10T21:36:41.497Z,3.70
2018-09-10T21:39:11.659Z,3.70
2018-09-10T21:41:41.811Z,4.17
2018-09-10T21:44:11.274Z,4.67
2018-09-10T21:46:40.734Z,4.07
2018-09-10T21:49:10.630Z,4.27
2018-09-10T21:51:40.064Z,3.70
2018-09-10T21:54:09.332Z,3.87
2018-09-10T21:56:38.807Z,3.50
2018-09-10T21:59:08.249Z,4.10
2018-09-10T22:01:37.744Z,3.70
2018-09-10T22:04:07.803Z,4.10
2018-09-10T22:06:37.489Z,4.10
2018-09-10T22:09:07.776Z,4.35
2018-09-10T22:11:41.261Z,4.10
2018-09-10T22:14:10.516Z,4.80
2018-09-10T22:16:39.943Z,4.30
2018-09-10T22:19:10.864Z,4.25
2018-09-10T22:21:40.374Z,4.67
2018-09-10T22:24:09.831Z,4.70
2018-09-10T22:26:39.211Z,4.70
2018-09-10T22:29:09.334Z,4.33
2018-09-10T22:31:39.436Z,4.50
2018-09-10T22:34:08.985Z,4.70
2018-09-10T22:36:39.619Z,4.20
2018-09-10T22:39:11.709Z,4.37
2018-09-10T22:41:41.427Z,4.50
2018-09-10T22:44:11.044Z,4.53
2018-09-10T22:46:40.671Z,4.80
2018-09-10T22:49:10.067Z,4.50
2018-09-10T22:51:39.530Z,5.17
2018-09-10T22:54:09.201Z,4.93
2018-09-10T22:56:38.725Z,5.30
2018-09-10T22:59:07.962Z,5.90
2018-09-10T23:01:37.317Z,4.63
2018-09-10T23:04:06.652Z,4.80
2018-09-10T23:06:36.905Z,4.63
2018-09-10T23:09:08.070Z,4.40
2018-09-10T23:11:38.418Z,4.97
2018-09-10T23:14:07.802Z,4.60
2018-09-10T23:16:37.160Z,5.20
2018-09-10T23:19:06.494Z,4.40
2018-09-10T23:21:35.950Z,4.63
2018-09-10T23:24:05.186Z,4.90
2018-09-10T23:26:34.772Z,5.20
2018-09-10T23:29:04.111Z,4.73
2018-09-10T23:31:33.483Z,4.53
2018-09-10T23:34:02.904Z,5.40
2018-09-10T23:36:32.356Z,4.50
2018-09-10T23:39:01.752Z,4.45
2018-09-10T23:41:31.001Z,4.93
2018-09-10T23:44:00.297Z,4.83
2018-09-10T23:46:30.040Z,4.73
2018-09-10T23:48:59.455Z,4.50
2018-09-10T23:51:28.750Z,4.30
2018-09-10T23:53:58.029Z,5.03
2018-09-10T23:56:27.277Z,4.97
2018-09-10T23:58:56.819Z,4.23
